sensor_id;sensor_type;location;lat;lon;timestamp;pressure;altitude;pressure_sealevel;temperature;humidity
55301;BME280;58302;51.446;-2.000;2023-05-03T00:00:24;101777.00;;;9.17;100.00
55301;BME280;58302;51.446;-2.000;2023-05-03T00:02:51;101773.91;;;9.13;100.00
55301;BME280;58302;51.446;-2.000;2023-05-03T00:05:18;101772.69;;;9.09;100.00
55301;BME280;58302;51.446;-2.000;2023-05-03T00:07:45;101778.13;;;9.09;100.00
55301;BME280;58302;51.446;-2.000;2023-05-03T00:10:12;101772.53;;;9.04;100.00
55301;BME280;58302;51.446;-2.000;2023-05-03T00:12:39;101774.19;;;9.05;100.00
55301;BME280;58302;51.446;-2.000;2023-05-03T00:15:06;101771.72;;;9.04;100.00
55301;BME280;58302;51.446;-2.000;2023-05-03T00:17:32;101769.41;;;9.01;100.00
55301;BME280;58302;51.446;-2.000;2023-05-03T00:19:58;101764.22;;;8.99;100.00
55301;BME280;58302;51.446;-2.000;2023-05-03T00:22:24;101762.81;;;8.96;100.00
55301;BME280;58302;51.446;-2.000;2023-05-03T00:24:50;101766.19;;;8.92;100.00
55301;BME280;58302;51.446;-2.000;2023-05-03T00:27:17;101772.88;;;8.89;100.00
55301;BME280;58302;51.446;-2.000;2023-05-03T00:29:43;101772.91;;;8.83;100.00
55301;BME280;58302;51.446;-2.000;2023-05-03T00:32:09;101764.84;;;8.76;100.00
55301;BME280;58302;51.446;-2.000;2023-05-03T00:34:36;101763.25;;;8.68;100.00
55301;BME280;58302;51.446;-2.000;2023-05-03T00:37:02;101774.53;;;8.65;100.00
55301;BME280;58302;51.446;-2.000;2023-05-03T00:39:29;101783.06;;;8.62;100.00
55301;BME280;58302;51.446;-2.000;2023-05-03T00:41:57;101775.81;;;8.56;100.00
55301;BME280;58302;51.446;-2.000;2023-05-03T00:44:23;101768.59;;;8.50;100.00
55301;BME280;58302;51.446;-2.000;2023-05-03T00:46:50;101771.75;;;8.47;100.00
55301;BME280;58302;51.446;-2.000;2023-05-03T00:49:17;101777.59;;;8.44;100.00
55301;BME280;58302;51.446;-2.000;2023-05-03T00:51:43;101767.63;;;8.38;100.00
55301;BME280;58302;51.446;-2.000;2023-05-03T00:54:10;101772.44;;;8.36;100.00
55301;BME280;58302;51.446;-2.000;2023-05-03T00:56:37;101767.41;;;8.33;100.00
55301;BME280;58302;51.446;-2.000;2023-05-03T00:59:04;101777.69;;;8.24;100.00
55301;BME280;58302;51.446;-2.000;2023-05-03T01:01:31;101765.00;;;8.18;100.00
55301;BME280;58302;51.446;-2.000;2023-05-03T01:03:59;101768.97;;;8.15;100.00
55301;BME280;58302;51.446;-2.000;2023-05-03T01:06:53;101772.56;;;8.09;100.00
55301;BME280;58302;51.446;-2.000;2023-05-03T01:15:04;101771.59;;;7.90;100.00
55301;BME280;58302;51.446;-2.000;2023-05-03T01:17:38;101770.38;;;7.86;100.00
55301;BME280;58302;51.446;-2.000;2023-05-03T01:20:07;101767.06;;;7.78;100.00
55301;BME280;58302;51.446;-2.000;2023-05-03T01:25:23;101763.81;;;7.56;100.00
55301;BME280;58302;51.446;-2.000;2023-05-03T01:27:49;101765.69;;;7.55;100.00
55301;BME280;58302;51.446;-2.000;2023-05-03T01:30:15;101759.66;;;7.47;100.00
55301;BME280;58302;51.446;-2.000;2023-05-03T01:35:33;101774.28;;;7.32;100.00
55301;BME280;58302;51.446;-2.000;2023-05-03T01:38:01;101772.63;;;7.25;100.00
55301;BME280;58302;51.446;-2.000;2023-05-03T01:40:28;101775.13;;;7.20;100.00
55301;BME280;58302;51.446;-2.000;2023-05-03T01:42:55;101765.59;;;7.10;100.00
55301;BME280;58302;51.446;-2.000;2023-05-03T01:45:22;101761.66;;;7.00;100.00
55301;BME280;58302;51.446;-2.000;2023-05-03T01:47:48;101769.75;;;6.86;100.00
55301;BME280;58302;51.446;-2.000;2023-05-03T01:50:14;101762.91;;;6.77;100.00
55301;BME280;58302;51.446;-2.000;2023-05-03T01:52:40;101761.03;;;6.71;100.00
55301;BME280;58302;51.446;-2.000;2023-05-03T01:55:06;101762.69;;;6.66;100.00
55301;BME280;58302;51.446;-2.000;2023-05-03T01:57:32;101762.25;;;6.69;100.00
55301;BME280;58302;51.446;-2.000;2023-05-03T01:59:58;101759.34;;;6.64;100.00
55301;BME280;58302;51.446;-2.000;2023-05-03T02:02:24;101754.78;;;6.64;100.00
55301;BME280;58302;51.446;-2.000;2023-05-03T02:04:50;101756.88;;;6.62;100.00
55301;BME280;58302;51.446;-2.000;2023-05-03T02:07:16;101750.00;;;6.53;100.00
55301;BME280;58302;51.446;-2.000;2023-05-03T02:09:42;101756.66;;;6.50;100.00
55301;BME280;58302;51.446;-2.000;2023-05-03T02:12:08;101756.84;;;6.42;100.00
55301;BME280;58302;51.446;-2.000;2023-05-03T02:14:36;101765.13;;;6.34;100.00
55301;BME280;58302;51.446;-2.000;2023-05-03T02:17:02;101768.66;;;6.34;100.00
55301;BME280;58302;51.446;-2.000;2023-05-03T02:19:28;101761.81;;;6.32;100.00
55301;BME280;58302;51.446;-2.000;2023-05-03T02:21:53;101766.19;;;6.33;100.00
55301;BME280;58302;51.446;-2.000;2023-05-03T02:24:19;101761.19;;;6.30;100.00
55301;BME280;58302;51.446;-2.000;2023-05-03T02:26:45;101758.06;;;6.26;100.00
55301;BME280;58302;51.446;-2.000;2023-05-03T02:29:11;101765.53;;;6.18;100.00
55301;BME280;58302;51.446;-2.000;2023-05-03T02:31:37;101765.28;;;6.13;100.00
55301;BME280;58302;51.446;-2.000;2023-05-03T02:34:03;101767.78;;;6.07;100.00
55301;BME280;58302;51.446;-2.000;2023-05-03T02:36:29;101759.44;;;6.02;100.00
55301;BME280;58302;51.446;-2.000;2023-05-03T02:38:55;101767.53;;;6.02;100.00
55301;BME280;58302;51.446;-2.000;2023-05-03T02:41:21;101758.63;;;6.02;100.00
55301;BME280;58302;51.446;-2.000;2023-05-03T02:43:47;101748.19;;;5.92;100.00
55301;BME280;58302;51.446;-2.000;2023-05-03T02:46:13;101757.50;;;5.90;100.00
55301;BME280;58302;51.446;-2.000;2023-05-03T02:48:39;101752.94;;;5.90;100.00
55301;BME280;58302;51.446;-2.000;2023-05-03T02:51:06;101746.28;;;5.86;100.00
55301;BME280;58302;51.446;-2.000;2023-05-03T02:53:32;101744.81;;;5.77;100.00
55301;BME280;58302;51.446;-2.000;2023-05-03T02:55:58;101755.75;;;5.69;100.00
55301;BME280;58302;51.446;-2.000;2023-05-03T02:58:23;101752.44;;;5.67;100.00
55301;BME280;58302;51.446;-2.000;2023-05-03T03:00:49;101749.31;;;5.63;100.00
55301;BME280;58302;51.446;-2.000;2023-05-03T03:03:16;101757.38;;;5.57;100.00
55301;BME280;58302;51.446;-2.000;2023-05-03T03:05:41;101764.44;;;5.58;100.00
55301;BME280;58302;51.446;-2.000;2023-05-03T03:08:07;101755.72;;;5.55;100.00
55301;BME280;58302;51.446;-2.000;2023-05-03T03:10:33;101759.88;;;5.58;100.00
55301;BME280;58302;51.446;-2.000;2023-05-03T03:12:59;101760.69;;;5.59;100.00
55301;BME280;58302;51.446;-2.000;2023-05-03T03:15:25;101759.03;;;5.58;100.00
55301;BME280;58302;51.446;-2.000;2023-05-03T03:17:51;101760.28;;;5.55;100.00
55301;BME280;58302;51.446;-2.000;2023-05-03T03:20:22;101743.66;;;5.51;100.00
55301;BME280;58302;51.446;-2.000;2023-05-03T03:22:48;101749.06;;;5.51;100.00
55301;BME280;58302;51.446;-2.000;2023-05-03T03:25:13;101743.44;;;5.53;100.00
55301;BME280;58302;51.446;-2.000;2023-05-03T03:27:40;101748.00;;;5.52;100.00
55301;BME280;58302;51.446;-2.000;2023-05-03T03:30:08;101738.25;;;5.51;100.00
55301;BME280;58302;51.446;-2.000;2023-05-03T03:32:35;101734.09;;;5.49;100.00
55301;BME280;58302;51.446;-2.000;2023-05-03T03:35:01;101737.00;;;5.47;100.00
55301;BME280;58302;51.446;-2.000;2023-05-03T03:37:26;101737.66;;;5.49;100.00
55301;BME280;58302;51.446;-2.000;2023-05-03T03:39:52;101733.25;;;5.48;100.00
55301;BME280;58302;51.446;-2.000;2023-05-03T03:42:18;101724.94;;;5.43;100.00
55301;BME280;58302;51.446;-2.000;2023-05-03T03:44:46;101723.25;;;5.36;100.00
55301;BME280;58302;51.446;-2.000;2023-05-03T03:47:12;101719.03;;;5.26;100.00
55301;BME280;58302;51.446;-2.000;2023-05-03T03:49:38;101711.59;;;5.22;100.00
55301;BME280;58302;51.446;-2.000;2023-05-03T03:52:04;101718.56;;;5.16;100.00
55301;BME280;58302;51.446;-2.000;2023-05-03T03:54:31;101719.34;;;5.10;100.00
55301;BME280;58302;51.446;-2.000;2023-05-03T03:56:59;101712.91;;;5.05;100.00
55301;BME280;58302;51.446;-2.000;2023-05-03T03:59:25;101713.53;;;5.00;100.00
55301;BME280;58302;51.446;-2.000;2023-05-03T04:01:51;101706.66;;;4.97;100.00
55301;BME280;58302;51.446;-2.000;2023-05-03T04:04:17;101706.41;;;4.92;100.00
55301;BME280;58302;51.446;-2.000;2023-05-03T04:06:43;101704.72;;;4.85;100.00
55301;BME280;58302;51.446;-2.000;2023-05-03T04:09:09;101706.94;;;4.81;100.00
55301;BME280;58302;51.446;-2.000;2023-05-03T04:11:35;101699.66;;;4.75;100.00
55301;BME280;58302;51.446;-2.000;2023-05-03T04:14:01;101703.94;;;4.63;100.00
55301;BME280;58302;51.446;-2.000;2023-05-03T04:16:28;101710.72;;;4.59;100.00
55301;BME280;58302;51.446;-2.000;2023-05-03T04:18:54;101713.16;;;4.54;100.00
55301;BME280;58302;51.446;-2.000;2023-05-03T04:21:20;101713.31;;;4.45;100.00
55301;BME280;58302;51.446;-2.000;2023-05-03T04:23:46;101716.38;;;4.42;100.00
55301;BME280;58302;51.446;-2.000;2023-05-03T04:26:12;101721.50;;;4.37;100.00
55301;BME280;58302;51.446;-2.000;2023-05-03T04:28:38;101723.16;;;4.38;100.00
55301;BME280;58302;51.446;-2.000;2023-05-03T04:31:04;101719.38;;;4.33;100.00
55301;BME280;58302;51.446;-2.000;2023-05-03T04:33:30;101724.06;;;4.24;100.00
55301;BME280;58302;51.446;-2.000;2023-05-03T04:35:56;101720.66;;;4.15;100.00
55301;BME280;58302;51.446;-2.000;2023-05-03T04:38:22;101726.44;;;4.12;100.00
55301;BME280;58302;51.446;-2.000;2023-05-03T04:40:48;101715.69;;;4.12;100.00
55301;BME280;58302;51.446;-2.000;2023-05-03T04:43:14;101722.19;;;4.03;100.00
55301;BME280;58302;51.446;-2.000;2023-05-03T04:45:40;101723.59;;;3.99;100.00
55301;BME280;58302;51.446;-2.000;2023-05-03T04:48:06;101729.66;;;4.01;100.00
55301;BME280;58302;51.446;-2.000;2023-05-03T04:50:33;101721.75;;;4.00;100.00
55301;BME280;58302;51.446;-2.000;2023-05-03T04:52:59;101729.81;;;4.00;100.00
55301;BME280;58302;51.446;-2.000;2023-05-03T04:55:25;101728.50;;;3.95;100.00
55301;BME280;58302;51.446;-2.000;2023-05-03T04:57:53;101724.16;;;3.94;100.00
55301;BME280;58302;51.446;-2.000;2023-05-03T05:00:19;101723.66;;;4.06;100.00
55301;BME280;58302;51.446;-2.000;2023-05-03T05:02:47;101722.78;;;4.20;100.00
55301;BME280;58302;51.446;-2.000;2023-05-03T05:05:13;101737.19;;;4.34;100.00
55301;BME280;58302;51.446;-2.000;2023-05-03T05:07:39;101741.63;;;4.41;100.00
55301;BME280;58302;51.446;-2.000;2023-05-03T05:10:06;101741.69;;;4.48;100.00
55301;BME280;58302;51.446;-2.000;2023-05-03T05:12:32;101737.38;;;4.54;100.00
55301;BME280;58302;51.446;-2.000;2023-05-03T05:14:58;101739.19;;;4.68;100.00
55301;BME280;58302;51.446;-2.000;2023-05-03T05:17:24;101739.53;;;4.86;100.00
55301;BME280;58302;51.446;-2.000;2023-05-03T05:19:51;101749.38;;;5.00;100.00
55301;BME280;58302;51.446;-2.000;2023-05-03T05:22:17;101736.16;;;5.06;100.00
55301;BME280;58302;51.446;-2.000;2023-05-03T05:24:44;101739.94;;;5.18;100.00
55301;BME280;58302;51.446;-2.000;2023-05-03T05:27:10;101738.38;;;5.37;100.00
55301;BME280;58302;51.446;-2.000;2023-05-03T05:29:36;101731.22;;;5.50;100.00
55301;BME280;58302;51.446;-2.000;2023-05-03T05:32:02;101733.72;;;5.59;100.00
55301;BME280;58302;51.446;-2.000;2023-05-03T05:34:30;101733.97;;;5.70;100.00
55301;BME280;58302;51.446;-2.000;2023-05-03T05:36:56;101725.94;;;5.77;100.00
55301;BME280;58302;51.446;-2.000;2023-05-03T05:39:22;101724.31;;;5.89;100.00
55301;BME280;58302;51.446;-2.000;2023-05-03T05:41:48;101721.78;;;5.88;100.00
55301;BME280;58302;51.446;-2.000;2023-05-03T05:44:14;101721.63;;;5.89;100.00
55301;BME280;58302;51.446;-2.000;2023-05-03T05:46:40;101718.13;;;5.95;100.00
55301;BME280;58302;51.446;-2.000;2023-05-03T05:49:06;101721.47;;;6.04;100.00
55301;BME280;58302;51.446;-2.000;2023-05-03T05:51:32;101728.75;;;6.10;100.00
55301;BME280;58302;51.446;-2.000;2023-05-03T05:53:58;101725.25;;;6.16;100.00
55301;BME280;58302;51.446;-2.000;2023-05-03T05:56:24;101719.44;;;6.26;100.00
55301;BME280;58302;51.446;-2.000;2023-05-03T05:58:51;101723.16;;;6.31;100.00
55301;BME280;58302;51.446;-2.000;2023-05-03T06:01:17;101727.34;;;6.41;100.00
55301;BME280;58302;51.446;-2.000;2023-05-03T06:03:42;101729.22;;;6.53;100.00
55301;BME280;58302;51.446;-2.000;2023-05-03T06:06:08;101730.47;;;6.57;100.00
55301;BME280;58302;51.446;-2.000;2023-05-03T06:08:34;101725.09;;;6.71;100.00
55301;BME280;58302;51.446;-2.000;2023-05-03T06:11:00;101725.47;;;6.81;100.00
55301;BME280;58302;51.446;-2.000;2023-05-03T06:13:26;101728.19;;;6.94;100.00
55301;BME280;58302;51.446;-2.000;2023-05-03T06:15:52;101732.75;;;7.00;100.00
55301;BME280;58302;51.446;-2.000;2023-05-03T06:18:18;101736.06;;;7.16;100.00
55301;BME280;58302;51.446;-2.000;2023-05-03T06:20:48;101727.69;;;7.24;100.00
55301;BME280;58302;51.446;-2.000;2023-05-03T06:23:14;101733.72;;;7.32;100.00
55301;BME280;58302;51.446;-2.000;2023-05-03T06:25:40;101734.69;;;7.51;100.00
55301;BME280;58302;51.446;-2.000;2023-05-03T06:28:06;101729.25;;;7.64;100.00
55301;BME280;58302;51.446;-2.000;2023-05-03T06:30:32;101731.47;;;7.81;100.00
55301;BME280;58302;51.446;-2.000;2023-05-03T06:32:59;101726.59;;;7.96;100.00
55301;BME280;58302;51.446;-2.000;2023-05-03T06:35:25;101727.75;;;8.13;100.00
55301;BME280;58302;51.446;-2.000;2023-05-03T06:37:51;101726.00;;;8.26;100.00
55301;BME280;58302;51.446;-2.000;2023-05-03T06:40:17;101720.03;;;8.49;100.00
55301;BME280;58302;51.446;-2.000;2023-05-03T06:42:43;101725.09;;;8.70;100.00
55301;BME280;58302;51.446;-2.000;2023-05-03T06:45:09;101724.19;;;9.19;100.00
55301;BME280;58302;51.446;-2.000;2023-05-03T06:47:35;101725.97;;;9.81;100.00
55301;BME280;58302;51.446;-2.000;2023-05-03T06:50:01;101719.84;;;10.34;100.00
55301;BME280;58302;51.446;-2.000;2023-05-03T06:52:27;101717.19;;;11.04;100.00
55301;BME280;58302;51.446;-2.000;2023-05-03T06:54:53;101718.63;;;11.70;100.00
55301;BME280;58302;51.446;-2.000;2023-05-03T06:57:19;101708.28;;;12.12;100.00
55301;BME280;58302;51.446;-2.000;2023-05-03T06:59:46;101706.84;;;12.38;100.00
55301;BME280;58302;51.446;-2.000;2023-05-03T07:02:11;101710.84;;;12.64;100.00
55301;BME280;58302;51.446;-2.000;2023-05-03T07:04:37;101712.88;;;12.74;100.00
55301;BME280;58302;51.446;-2.000;2023-05-03T07:07:04;101716.28;;;12.81;100.00
55301;BME280;58302;51.446;-2.000;2023-05-03T07:09:31;101719.75;;;12.60;100.00
55301;BME280;58302;51.446;-2.000;2023-05-03T07:11:57;101721.88;;;12.58;100.00
55301;BME280;58302;51.446;-2.000;2023-05-03T07:14:23;101714.13;;;12.66;100.00
55301;BME280;58302;51.446;-2.000;2023-05-03T07:16:49;101716.53;;;12.97;100.00
55301;BME280;58302;51.446;-2.000;2023-05-03T07:19:15;101713.56;;;13.37;100.00
55301;BME280;58302;51.446;-2.000;2023-05-03T07:21:41;101710.91;;;13.64;100.00
55301;BME280;58302;51.446;-2.000;2023-05-03T07:24:08;101713.38;;;14.14;100.00
55301;BME280;58302;51.446;-2.000;2023-05-03T07:26:37;101716.41;;;14.77;100.00
55301;BME280;58302;51.446;-2.000;2023-05-03T07:29:03;101710.34;;;14.70;100.00
55301;BME280;58302;51.446;-2.000;2023-05-03T07:31:29;101701.06;;;14.44;100.00
55301;BME280;58302;51.446;-2.000;2023-05-03T07:33:56;101715.09;;;14.47;100.00
55301;BME280;58302;51.446;-2.000;2023-05-03T07:36:22;101710.75;;;13.97;100.00
55301;BME280;58302;51.446;-2.000;2023-05-03T07:38:48;101711.09;;;13.79;100.00
55301;BME280;58302;51.446;-2.000;2023-05-03T07:41:14;101704.81;;;14.06;100.00
55301;BME280;58302;51.446;-2.000;2023-05-03T07:43:40;101703.94;;;14.54;100.00
